createdAt,value
2018-09-13T00:01:12.440Z,11.35
2018-09-13T00:03:42.031Z,11.35
2018-09-13T00:06:11.510Z,11.32
2018-09-13T00:08:40.945Z,11.30
2018-09-13T00:11:10.434Z,11.24
2018-09-13T00:13:39.892Z,11.24
2018-09-13T00:16:09.371Z,11.17
2018-09-13T00:18:38.784Z,11.12
2018-09-13T00:21:08.234Z,11.14
2018-09-13T00:23:37.776Z,11.13
2018-09-13T00:26:07.230Z,11.17
2018-09-13T00:28:36.661Z,11.16
2018-09-13T00:31:06.230Z,11.18
2018-09-13T00:33:35.690Z,11.21
2018-09-13T00:36:05.185Z,11.20
2018-09-13T00:38:34.682Z,11.22
2018-09-13T00:41:04.084Z,11.18
2018-09-13T00:43:33.502Z,11.20
2018-09-13T00:46:02.978Z,11.24
2018-09-13T00:48:32.476Z,11.21
2018-09-13T00:51:01.939Z,11.21
2018-09-13T00:53:31.439Z,11.24
2018-09-13T00:56:01.015Z,11.26
2018-09-13T00:58:30.510Z,11.29
2018-09-13T01:01:00.008Z,11.30
2018-09-13T01:03:29.487Z,11.35
2018-09-13T01:05:59.007Z,11.36
2018-09-13T01:08:28.430Z,11.34
2018-09-13T01:10:57.865Z,11.34
2018-09-13T01:13:27.385Z,11.38
2018-09-13T01:15:56.817Z,11.40
2018-09-13T01:18:26.340Z,11.40
2018-09-13T01:20:55.845Z,11.33
2018-09-13T01:23:25.283Z,11.33
2018-09-13T01:25:54.742Z,11.24
2018-09-13T01:28:24.513Z,11.21
2018-09-13T01:30:54.000Z,11.17
2018-09-13T01:33:23.514Z,11.09
2018-09-13T01:35:52.988Z,10.98
2018-09-13T01:38:22.400Z,10.94
2018-09-13T01:40:51.820Z,10.87
2018-09-13T01:43:21.294Z,10.87
2018-09-13T01:45:50.720Z,10.89
2018-09-13T01:48:20.136Z,10.89
2018-09-13T01:50:49.648Z,10.88
2018-09-13T01:53:19.125Z,10.87
2018-09-13T01:55:48.585Z,10.77
2018-09-13T01:58:18.144Z,10.84
2018-09-13T02:00:47.572Z,10.85
2018-09-13T02:03:16.989Z,10.84
2018-09-13T02:05:46.463Z,10.86
2018-09-13T02:08:15.894Z,10.91
2018-09-13T02:10:45.413Z,10.88
2018-09-13T02:13:14.849Z,10.91
2018-09-13T02:15:44.393Z,10.90
2018-09-13T02:18:13.920Z,10.91
2018-09-13T02:20:43.353Z,10.92
2018-09-13T02:23:12.862Z,10.96
2018-09-13T02:25:42.370Z,10.96
2018-09-13T02:28:11.841Z,10.98
2018-09-13T02:30:41.320Z,11.03
2018-09-13T02:33:10.896Z,10.98
2018-09-13T02:35:40.360Z,10.95
2018-09-13T02:38:09.846Z,10.96
2018-09-13T02:40:39.446Z,10.96
2018-09-13T02:43:08.922Z,10.97
2018-09-13T02:45:38.418Z,11.04
2018-09-13T02:48:07.956Z,11.06
2018-09-13T02:50:37.430Z,11.06
2018-09-13T02:53:07.002Z,10.98
2018-09-13T02:55:36.507Z,10.93
2018-09-13T02:58:05.962Z,10.87
2018-09-13T03:00:35.431Z,10.87
2018-09-13T03:03:04.917Z,10.86
2018-09-13T03:05:34.341Z,10.88
2018-09-13T03:08:03.849Z,10.87
2018-09-13T03:10:33.310Z,10.87
2018-09-13T03:13:02.878Z,10.96
2018-09-13T03:15:32.424Z,11.01
2018-09-13T03:18:01.869Z,10.91
2018-09-13T03:20:31.369Z,10.89
2018-09-13T03:23:00.884Z,10.84
2018-09-13T03:25:30.371Z,10.86
2018-09-13T03:27:59.843Z,10.71
2018-09-13T03:30:29.359Z,10.66
2018-09-13T03:32:58.902Z,10.77
2018-09-13T03:35:28.394Z,10.85
2018-09-13T03:37:57.889Z,10.92
2018-09-13T03:40:27.399Z,10.98
2018-09-13T03:42:56.911Z,11.03
2018-09-13T03:45:26.419Z,11.11
2018-09-13T03:47:55.890Z,11.17
2018-09-13T03:50:25.402Z,11.18
2018-09-13T03:52:54.897Z,11.18
2018-09-13T03:55:24.440Z,11.14
2018-09-13T03:57:53.926Z,11.09
2018-09-13T04:00:23.488Z,11.05
2018-09-13T04:02:53.117Z,11.04
2018-09-13T04:05:22.848Z,11.02
2018-09-13T04:07:52.477Z,11.07
2018-09-13T04:10:22.033Z,11.11
2018-09-13T04:12:51.661Z,11.14
2018-09-13T04:15:21.189Z,11.22
2018-09-13T04:17:50.701Z,11.28
2018-09-13T04:20:20.193Z,11.29
2018-09-13T04:22:50.406Z,11.29
2018-09-13T04:25:19.849Z,11.36
2018-09-13T04:27:49.274Z,11.38
2018-09-13T04:30:18.749Z,11.41
2018-09-13T04:32:48.192Z,11.44
2018-09-13T04:35:18.008Z,11.37
2018-09-13T04:37:47.473Z,11.17
2018-09-13T04:40:17.062Z,11.16
2018-09-13T04:42:46.640Z,11.21
2018-09-13T04:45:16.069Z,11.25
2018-09-13T04:47:45.525Z,11.24
2018-09-13T04:50:15.055Z,11.25
2018-09-13T04:52:44.809Z,11.26
2018-09-13T04:55:14.238Z,11.28
2018-09-13T04:57:44.191Z,11.25
2018-09-13T05:00:13.744Z,11.16
2018-09-13T05:02:43.170Z,11.07
2018-09-13T05:05:12.661Z,11.00
2018-09-13T05:07:42.182Z,10.97
2018-09-13T05:10:11.759Z,10.81
2018-09-13T05:12:41.381Z,10.82
2018-09-13T05:15:11.021Z,10.81
2018-09-13T05:17:40.635Z,10.82
2018-09-13T05:20:10.702Z,10.82
2018-09-13T05:22:40.149Z,10.82
2018-09-13T05:25:09.830Z,10.84
2018-09-13T05:27:39.317Z,10.86
2018-09-13T05:30:09.150Z,10.85
2018-09-13T05:32:38.757Z,10.81
2018-09-13T05:35:08.374Z,10.78
2018-09-13T05:37:37.966Z,10.81
2018-09-13T05:40:07.401Z,10.81
2018-09-13T05:42:36.933Z,10.82
2018-09-13T05:45:06.686Z,10.79
2018-09-13T05:47:36.103Z,10.86
2018-09-13T05:50:05.734Z,10.95
2018-09-13T05:52:35.193Z,11.04
2018-09-13T05:55:04.722Z,11.10
2018-09-13T05:57:34.417Z,11.13
2018-09-13T06:00:04.150Z,11.16
2018-09-13T06:02:33.666Z,11.26
2018-09-13T06:05:03.189Z,11.31
2018-09-13T06:07:32.786Z,11.27
2018-09-13T06:10:02.387Z,11.28
2018-09-13T06:12:31.906Z,11.32
2018-09-13T06:15:01.398Z,11.34
2018-09-13T06:17:30.878Z,11.40
2018-09-13T06:20:00.369Z,11.45
2018-09-13T06:22:29.859Z,11.52
2018-09-13T06:24:59.321Z,11.56
2018-09-13T06:27:28.795Z,11.62
2018-09-13T06:29:58.271Z,11.66
2018-09-13T06:32:27.750Z,11.76
2018-09-13T06:34:57.352Z,11.81
2018-09-13T06:37:26.904Z,11.88
2018-09-13T06:39:56.381Z,11.94
2018-09-13T06:42:25.908Z,12.02
2018-09-13T06:44:55.431Z,12.09
2018-09-13T06:47:25.162Z,12.15
2018-09-13T06:49:54.731Z,12.21
2018-09-13T06:52:24.428Z,12.29
2018-09-13T06:54:54.014Z,12.34
2018-09-13T06:57:23.601Z,12.41
2018-09-13T06:59:53.202Z,12.48
2018-09-13T07:02:22.755Z,12.56
2018-09-13T07:04:52.408Z,12.64
2018-09-13T07:07:21.923Z,12.77
2018-09-13T07:09:51.488Z,12.89
2018-09-13T07:12:20.961Z,13.04
2018-09-13T07:14:50.534Z,13.23
2018-09-13T07:17:20.124Z,13.31
2018-09-13T07:19:49.634Z,13.40
2018-09-13T07:22:19.105Z,13.45
2018-09-13T07:24:48.620Z,13.49
2018-09-13T07:27:18.073Z,13.54
2018-09-13T07:29:48.025Z,13.58
2018-09-13T07:32:17.717Z,13.64
2018-09-13T07:34:47.317Z,13.68
2018-09-13T07:37:16.760Z,13.72
2018-09-13T07:39:46.313Z,13.75
2018-09-13T07:42:15.913Z,13.84
2018-09-13T07:44:45.859Z,13.90
2018-09-13T07:47:15.485Z,14.03
2018-09-13T07:49:45.107Z,14.09
2018-09-13T07:52:14.537Z,14.15
2018-09-13T07:54:44.065Z,14.17
2018-09-13T07:57:13.561Z,14.29
2018-09-13T07:59:43.009Z,14.36
2018-09-13T08:02:12.585Z,14.54
2018-09-13T08:04:42.109Z,14.69
2018-09-13T08:07:11.671Z,14.76
2018-09-13T08:09:41.153Z,14.96
2018-09-13T08:12:10.700Z,14.98
2018-09-13T08:14:40.288Z,15.05
2018-09-13T08:17:09.982Z,15.14
2018-09-13T08:19:39.382Z,15.21
2018-09-13T08:22:09.278Z,15.29
2018-09-13T08:24:38.775Z,15.39
2018-09-13T08:27:08.475Z,15.52
2018-09-13T08:29:38.093Z,15.53
2018-09-13T08:32:07.720Z,15.55
2018-09-13T08:34:37.323Z,15.58
2018-09-13T08:37:07.042Z,15.56
2018-09-13T08:39:36.440Z,15.74
2018-09-13T08:42:05.936Z,15.67
2018-09-13T08:44:35.343Z,15.56
2018-09-13T08:47:04.850Z,15.51
2018-09-13T08:49:34.488Z,15.45
2018-09-13T08:52:04.388Z,15.42
2018-09-13T08:54:33.830Z,15.46
2018-09-13T08:57:03.461Z,15.61
2018-09-13T08:59:33.089Z,15.67
2018-09-13T09:02:02.540Z,15.63
2018-09-13T09:04:32.601Z,15.66
2018-09-13T09:07:02.190Z,15.63
2018-09-13T09:09:31.665Z,15.77
2018-09-13T09:12:01.164Z,15.76
2018-09-13T09:14:30.659Z,15.79
2018-09-13T09:17:00.172Z,15.87
2018-09-13T09:19:29.808Z,15.92
2018-09-13T09:21:59.305Z,15.98
2018-09-13T09:24:28.853Z,16.08
2018-09-13T09:26:58.450Z,16.19
2018-09-13T09:29:28.030Z,16.48
2018-09-13T09:31:57.466Z,16.41
2018-09-13T09:34:27.160Z,16.51
2018-09-13T09:36:56.630Z,16.74
2018-09-13T09:39:26.165Z,17.13
2018-09-13T09:41:55.829Z,17.31
2018-09-13T09:44:25.363Z,17.35
2018-09-13T09:46:55.012Z,17.51
2018-09-13T09:49:24.603Z,17.87
2018-09-13T09:51:54.233Z,17.83
2018-09-13T09:54:23.790Z,18.02
2018-09-13T09:56:53.198Z,18.06
2018-09-13T09:59:22.621Z,18.03
2018-09-13T10:01:57.476Z,18.16
2018-09-13T10:04:27.020Z,17.95
2018-09-13T10:06:57.278Z,17.75
2018-09-13T10:09:26.820Z,17.56
2018-09-13T10:11:56.521Z,17.44
2018-09-13T10:14:26.064Z,17.32
2018-09-13T10:17:00.633Z,17.24
2018-09-13T10:19:35.463Z,17.13
2018-09-13T10:22:10.192Z,16.88
2018-09-13T10:24:45.534Z,16.87
2018-09-13T10:27:20.884Z,16.78
2018-09-13T10:29:55.976Z,16.66
2018-09-13T10:32:30.814Z,16.77
2018-09-13T10:35:05.494Z,16.81
2018-09-13T10:37:40.137Z,16.88
2018-09-13T10:40:14.682Z,17.14
2018-09-13T10:42:49.331Z,17.18
2018-09-13T10:45:24.066Z,17.17
2018-09-13T10:47:58.780Z,17.36
2018-09-13T10:50:31.616Z,17.42
2018-09-13T10:53:09.191Z,17.56
2018-09-13T10:55:38.881Z,17.71
2018-09-13T10:58:08.352Z,17.74
2018-09-13T11:00:37.969Z,17.98
2018-09-13T11:03:07.977Z,18.15
2018-09-13T11:05:37.693Z,18.14
2018-09-13T11:08:07.945Z,17.99
2018-09-13T11:10:37.652Z,17.96
2018-09-13T11:13:13.447Z,18.10
2018-09-13T11:15:43.057Z,18.14
2018-09-13T11:18:12.801Z,18.00
2018-09-13T11:20:42.281Z,17.92
2018-09-13T11:23:11.762Z,17.85
2018-09-13T11:25:41.192Z,17.80
2018-09-13T11:28:10.845Z,17.70
2018-09-13T11:30:40.453Z,17.53
2018-09-13T11:33:10.434Z,17.68
2018-09-13T11:35:40.254Z,17.75
2018-09-13T11:38:09.875Z,17.92
2018-09-13T11:40:39.611Z,18.00
2018-09-13T11:43:09.102Z,18.16
2018-09-13T11:45:38.701Z,18.34
2018-09-13T11:48:08.340Z,18.42
2018-09-13T11:50:38.261Z,18.61
2018-09-13T11:53:07.836Z,18.78
2018-09-13T11:55:44.770Z,18.88
2018-09-13T11:58:16.067Z,18.89
2018-09-13T12:00:45.685Z,19.09
2018-09-13T12:03:15.421Z,19.39
2018-09-13T12:05:44.892Z,19.64
2018-09-13T12:08:14.617Z,19.67
2018-09-13T12:10:44.321Z,19.82
2018-09-13T12:13:14.015Z,19.51
2018-09-13T12:15:43.752Z,19.25
2018-09-13T12:18:13.415Z,19.34
2018-09-13T12:20:42.871Z,19.14
2018-09-13T12:23:12.529Z,19.13
2018-09-13T12:25:42.782Z,18.98
2018-09-13T12:28:12.933Z,18.90
2018-09-13T12:30:42.499Z,18.70
2018-09-13T12:33:12.002Z,18.58
2018-09-13T12:35:41.611Z,18.53
2018-09-13T12:38:12.268Z,18.63
2018-09-13T12:40:41.867Z,18.82
2018-09-13T12:43:11.377Z,19.13
2018-09-13T12:45:41.056Z,18.90
2018-09-13T12:48:10.641Z,18.72
2018-09-13T12:50:40.270Z,18.67
2018-09-13T12:53:09.771Z,19.14
2018-09-13T12:55:44.365Z,21.46
2018-09-13T12:58:13.918Z,23.31
2018-09-13T13:00:43.341Z,23.24
2018-09-13T13:03:12.960Z,25.25
2018-09-13T13:05:43.257Z,26.42
2018-09-13T13:08:12.745Z,28.00
2018-09-13T13:10:42.249Z,26.34
2018-09-13T13:13:12.312Z,26.33
2018-09-13T13:15:42.036Z,27.20
2018-09-13T13:18:11.604Z,27.83
2018-09-13T13:20:41.240Z,25.49
2018-09-13T13:23:10.721Z,25.28
2018-09-13T13:25:40.243Z,26.60
2018-09-13T13:28:09.771Z,26.17
2018-09-13T13:30:39.368Z,26.27
2018-09-13T13:33:08.921Z,26.81
2018-09-13T13:35:38.621Z,27.47
2018-09-13T13:38:08.177Z,28.34
2018-09-13T13:40:37.796Z,29.94
2018-09-13T13:43:07.224Z,29.81
2018-09-13T13:45:36.726Z,29.68
2018-09-13T13:48:06.352Z,30.47
2018-09-13T13:50:36.028Z,30.87
2018-09-13T13:53:05.548Z,30.04
2018-09-13T13:55:35.241Z,29.32
2018-09-13T13:58:05.656Z,29.42
2018-09-13T14:00:35.405Z,27.68
2018-09-13T14:03:04.882Z,28.48
2018-09-13T14:05:34.355Z,29.56
2018-09-13T14:08:03.895Z,29.93
2018-09-13T14:10:33.397Z,30.41
2018-09-13T14:13:02.951Z,28.74
2018-09-13T14:15:32.557Z,30.64
2018-09-13T14:18:02.041Z,30.82
2018-09-13T14:20:31.708Z,30.18
2018-09-13T14:23:01.424Z,30.39
2018-09-13T14:25:31.029Z,30.77
2018-09-13T14:28:00.527Z,30.46
2018-09-13T14:30:30.007Z,30.30
2018-09-13T14:32:59.618Z,29.88
2018-09-13T14:35:29.162Z,28.94
2018-09-13T14:37:58.896Z,30.41
2018-09-13T14:40:28.337Z,30.48
2018-09-13T14:42:57.958Z,30.22
2018-09-13T14:45:28.010Z,29.14
2018-09-13T14:47:58.214Z,29.22
2018-09-13T14:50:27.876Z,28.58
2018-09-13T14:52:57.384Z,28.32
2018-09-13T14:55:27.005Z,27.06
2018-09-13T14:57:56.599Z,27.71
2018-09-13T15:00:26.096Z,27.97
2018-09-13T15:02:55.615Z,27.84
2018-09-13T15:05:25.125Z,29.31
2018-09-13T15:07:54.619Z,30.54
2018-09-13T15:10:24.121Z,30.96
2018-09-13T15:12:53.832Z,30.68
2018-09-13T15:15:23.547Z,29.32
2018-09-13T15:17:52.992Z,26.42
2018-09-13T15:20:22.676Z,27.00
2018-09-13T15:22:52.241Z,26.58
2018-09-13T15:25:21.786Z,26.51
2018-09-13T15:27:51.250Z,26.37
2018-09-13T15:30:20.752Z,26.15
2018-09-13T15:32:50.290Z,27.36
2018-09-13T15:35:19.753Z,25.54
2018-09-13T15:37:49.806Z,25.43
2018-09-13T15:40:19.383Z,25.82
2018-09-13T15:42:48.947Z,26.13
2018-09-13T15:45:18.760Z,25.55
2018-09-13T15:47:48.226Z,24.72
2018-09-13T15:50:17.870Z,23.80
2018-09-13T15:52:47.594Z,23.84
2018-09-13T15:55:17.163Z,23.24
2018-09-13T15:57:46.670Z,22.33
2018-09-13T16:00:16.212Z,22.71
2018-09-13T16:02:45.860Z,22.67
2018-09-13T16:05:15.374Z,22.43
2018-09-13T16:07:44.968Z,21.84
2018-09-13T16:10:14.403Z,21.18
2018-09-13T16:12:44.070Z,20.52
2018-09-13T16:15:13.619Z,20.05
2018-09-13T16:17:43.145Z,19.85
2018-09-13T16:20:12.729Z,19.75
2018-09-13T16:22:42.524Z,19.62
2018-09-13T16:25:11.968Z,19.38
2018-09-13T16:27:41.487Z,19.27
2018-09-13T16:30:10.958Z,19.32
2018-09-13T16:32:40.616Z,19.34
2018-09-13T16:35:10.081Z,19.24
2018-09-13T16:37:44.930Z,19.10
2018-09-13T16:40:19.570Z,18.99
2018-09-13T16:42:54.615Z,18.87
2018-09-13T16:45:29.049Z,18.81
2018-09-13T16:48:00.935Z,18.74
2018-09-13T16:50:30.457Z,18.77
2018-09-13T16:53:00.099Z,18.59
2018-09-13T16:55:29.609Z,18.50
2018-09-13T16:57:59.021Z,18.42
2018-09-13T17:00:29.060Z,18.38
2018-09-13T17:02:58.580Z,18.37
2018-09-13T17:05:28.149Z,18.28
2018-09-13T17:07:57.745Z,18.08
2018-09-13T17:10:27.354Z,17.99
2018-09-13T17:12:56.828Z,17.96
2018-09-13T17:15:26.450Z,17.79
2018-09-13T17:17:55.852Z,17.77
2018-09-13T17:20:25.520Z,17.75
2018-09-13T17:22:55.144Z,17.63
2018-09-13T17:25:24.610Z,17.50
2018-09-13T17:27:54.099Z,17.47
2018-09-13T17:30:23.623Z,17.42
2018-09-13T17:32:53.142Z,17.40
2018-09-13T17:35:22.618Z,17.31
2018-09-13T17:37:52.246Z,17.23
2018-09-13T17:40:21.881Z,17.12
2018-09-13T17:42:51.568Z,17.08
2018-09-13T17:45:21.473Z,16.97
2018-09-13T17:47:51.535Z,16.90
2018-09-13T17:50:21.565Z,16.76
2018-09-13T17:52:51.192Z,16.66
2018-09-13T17:55:20.739Z,16.53
2018-09-13T17:57:50.351Z,16.43
2018-09-13T18:00:20.165Z,16.34
2018-09-13T18:02:49.924Z,16.18
2018-09-13T18:05:19.582Z,16.09
2018-09-13T18:07:50.152Z,15.90
2018-09-13T18:10:19.891Z,15.68
2018-09-13T18:12:49.449Z,15.58
2018-09-13T18:15:19.016Z,15.40
2018-09-13T18:17:48.553Z,15.21
2018-09-13T18:20:18.109Z,15.08
2018-09-13T18:22:47.617Z,14.95
2018-09-13T18:25:17.174Z,14.88
2018-09-13T18:27:46.688Z,14.84
2018-09-13T18:30:16.275Z,14.79
2018-09-13T18:32:45.781Z,14.75
2018-09-13T18:35:15.473Z,15.03
2018-09-13T18:37:45.071Z,15.20
2018-09-13T18:40:14.660Z,15.28
2018-09-13T18:42:44.181Z,15.28
2018-09-13T18:45:13.782Z,15.31
2018-09-13T18:47:43.334Z,15.26
2018-09-13T18:50:12.838Z,15.26
2018-09-13T18:52:42.662Z,15.22
2018-09-13T18:55:12.145Z,15.17
2018-09-13T18:57:42.008Z,15.17
2018-09-13T19:00:11.538Z,15.05
2018-09-13T19:02:41.009Z,14.92
2018-09-13T19:05:10.460Z,14.88
2018-09-13T19:07:39.911Z,14.80
2018-09-13T19:10:08.961Z,14.73
2018-09-13T19:12:38.538Z,14.59
2018-09-13T19:15:08.070Z,14.55
2018-09-13T19:17:37.578Z,14.41
2018-09-13T19:20:07.078Z,14.28
2018-09-13T19:22:36.554Z,14.03
2018-09-13T19:25:06.104Z,13.95
2018-09-13T19:27:35.580Z,13.66
2018-09-13T19:30:05.228Z,13.52
2018-09-13T19:32:34.693Z,13.30
2018-09-13T19:35:04.156Z,13.19
2018-09-13T19:37:33.623Z,13.11
2018-09-13T19:40:03.091Z,12.94
2018-09-13T19:42:32.574Z,12.98
2018-09-13T19:45:02.021Z,12.84
2018-09-13T19:47:31.514Z,12.66
2018-09-13T19:50:01.029Z,12.63
2018-09-13T19:52:30.557Z,12.54
2018-09-13T19:55:00.112Z,12.44
2018-09-13T19:57:29.612Z,12.33
2018-09-13T19:59:59.090Z,12.24
2018-09-13T20:02:28.566Z,12.19
2018-09-13T20:04:58.165Z,12.06
2018-09-13T20:07:28.011Z,12.04
2018-09-13T20:09:57.507Z,11.97
2018-09-13T20:12:26.989Z,11.94
2018-09-13T20:14:56.975Z,12.01
2018-09-13T20:17:26.361Z,11.99
2018-09-13T20:19:55.822Z,11.95
2018-09-13T20:22:25.313Z,11.89
2018-09-13T20:24:54.786Z,11.84
2018-09-13T20:27:24.257Z,11.73
2018-09-13T20:29:53.730Z,11.68
2018-09-13T20:32:23.214Z,11.72
2018-09-13T20:34:52.687Z,11.60
2018-09-13T20:37:22.185Z,11.65
2018-09-13T20:39:51.842Z,11.54
2018-09-13T20:42:21.324Z,11.48
2018-09-13T20:44:50.780Z,11.45
2018-09-13T20:47:20.177Z,11.36
2018-09-13T20:49:49.741Z,11.29
2018-09-13T20:52:19.161Z,11.21
2018-09-13T20:54:48.742Z,11.23
2018-09-13T20:57:18.306Z,11.15
2018-09-13T20:59:47.746Z,11.10
2018-09-13T21:02:17.253Z,10.95
2018-09-13T21:04:47.022Z,10.85
2018-09-13T21:07:17.118Z,10.93
2018-09-13T21:09:46.683Z,10.86
2018-09-13T21:12:16.155Z,10.81
2018-09-13T21:14:45.651Z,10.67
2018-09-13T21:17:15.331Z,10.64
2018-09-13T21:19:44.724Z,10.65
2018-09-13T21:22:14.248Z,10.65
2018-09-13T21:24:43.756Z,10.55
2018-09-13T21:27:13.246Z,10.56
2018-09-13T21:29:42.761Z,10.50
2018-09-13T21:32:12.279Z,10.48
2018-09-13T21:34:41.781Z,10.45
2018-09-13T21:37:11.279Z,10.49
2018-09-13T21:39:40.771Z,10.57
2018-09-13T21:42:10.285Z,10.51
2018-09-13T21:44:39.813Z,10.48
2018-09-13T21:47:09.297Z,10.41
2018-09-13T21:49:38.773Z,10.33
2018-09-13T21:52:08.293Z,10.24
2018-09-13T21:54:37.775Z,10.28
2018-09-13T21:57:07.260Z,10.21
2018-09-13T21:59:36.784Z,10.15
2018-09-13T22:02:06.553Z,10.05
2018-09-13T22:04:36.057Z,10.02
2018-09-13T22:07:05.503Z,9.93
2018-09-13T22:09:34.977Z,9.91
2018-09-13T22:12:04.914Z,9.90
2018-09-13T22:14:34.371Z,9.87
2018-09-13T22:17:03.854Z,9.87
2018-09-13T22:19:33.295Z,9.88
2018-09-13T22:22:02.711Z,9.84
2018-09-13T22:24:32.164Z,9.95
2018-09-13T22:27:01.591Z,9.85
2018-09-13T22:29:31.162Z,9.78
2018-09-13T22:32:00.638Z,9.70
2018-09-13T22:34:30.078Z,9.65
2018-09-13T22:36:59.570Z,9.66
2018-09-13T22:39:28.972Z,9.69
2018-09-13T22:41:58.480Z,9.62
2018-09-13T22:44:28.000Z,9.59
2018-09-13T22:46:57.478Z,9.52
2018-09-13T22:49:26.986Z,9.52
2018-09-13T22:51:56.536Z,9.48
2018-09-13T22:54:25.961Z,9.44
2018-09-13T22:56:55.460Z,9.47
2018-09-13T22:59:24.988Z,9.45
2018-09-13T23:01:54.417Z,9.35
2018-09-13T23:04:23.900Z,9.33
2018-09-13T23:06:53.657Z,9.30
2018-09-13T23:09:23.121Z,9.37
2018-09-13T23:11:52.565Z,9.40
2018-09-13T23:14:22.064Z,9.45
2018-09-13T23:16:51.556Z,9.47
2018-09-13T23:19:20.971Z,9.46
2018-09-13T23:21:50.454Z,9.44
2018-09-13T23:24:19.914Z,9.41
2018-09-13T23:26:49.371Z,9.41
2018-09-13T23:29:18.731Z,9.43
2018-09-13T23:31:48.288Z,9.42
2018-09-13T23:34:17.740Z,9.40
2018-09-13T23:36:47.174Z,9.27
2018-09-13T23:39:16.763Z,9.23
2018-09-13T23:41:46.118Z,9.20
2018-09-13T23:44:15.576Z,9.17
2018-09-13T23:46:45.039Z,9.28
2018-09-13T23:49:14.519Z,9.19
2018-09-13T23:51:43.961Z,9.18
2018-09-13T23:54:13.409Z,9.09
2018-09-13T23:56:42.850Z,8.99
2018-09-13T23:59:12.254Z,8.91
